Terminal Aerodrome Forecast
Issued by NWS Cleveland, OH

Home | Current Version | Previous Version | Graphics & Text | Print | Product List | Glossary On
Versions: 1 2 3 4 5 6 7 8 9 10 11 12 13 14 15 16 17 18 19 20 21 22 23 24 25
000
FTUS41 KCLE 191726
TAFTOL
TAF
KTOL 191726Z 1918/2018 VRB04KT P6SM OVC008
     FM192000 VRB04KT P6SM BKN015
     FM200700 07004KT 5SM BR OVC007
     FM200900 07005KT 5SM -RA BR OVC007
      TEMPO 2010/2014 2SM -RA BR OVC005
     FM201500 08004KT 5SM BR OVC006=

USA.gov is the U.S. government's official web portal to all federal, state and local government web resources and services.